sensor_id;sensor_type;location;lat;lon;timestamp;P1;durP1;ratioP1;P2;durP2;ratioP2
12112;SDS011;6120;52.250;8.478;2023-04-01T00:02:22;6.55;;;3.83;;
12112;SDS011;6120;52.250;8.478;2023-04-01T00:04:49;7.32;;;5.00;;
12112;SDS011;6120;52.250;8.478;2023-04-01T00:07:16;6.85;;;3.88;;
12112;SDS011;6120;52.250;8.478;2023-04-01T00:09:42;6.47;;;4.20;;
12112;SDS011;6120;52.250;8.478;2023-04-01T00:12:09;5.22;;;3.65;;
12112;SDS011;6120;52.250;8.478;2023-04-01T00:14:36;10.15;;;4.63;;
12112;SDS011;6120;52.250;8.478;2023-04-01T00:17:03;8.15;;;5.18;;
12112;SDS011;6120;52.250;8.478;2023-04-01T00:19:30;9.73;;;5.13;;
12112;SDS011;6120;52.250;8.478;2023-04-01T00:21:58;7.97;;;5.03;;
12112;SDS011;6120;52.250;8.478;2023-04-01T00:24:24;10.05;;;5.60;;
12112;SDS011;6120;52.250;8.478;2023-04-01T00:26:51;10.07;;;5.90;;
12112;SDS011;6120;52.250;8.478;2023-04-01T00:29:18;8.95;;;5.50;;
12112;SDS011;6120;52.250;8.478;2023-04-01T00:31:44;10.32;;;5.50;;
12112;SDS011;6120;52.250;8.478;2023-04-01T00:34:12;10.20;;;5.90;;
12112;SDS011;6120;52.250;8.478;2023-04-01T00:36:38;9.30;;;5.90;;
12112;SDS011;6120;52.250;8.478;2023-04-01T00:39:05;8.85;;;5.20;;
12112;SDS011;6120;52.250;8.478;2023-04-01T00:41:31;11.25;;;5.05;;
12112;SDS011;6120;52.250;8.478;2023-04-01T00:44:15;6.82;;;4.50;;
12112;SDS011;6120;52.250;8.478;2023-04-01T00:46:46;8.07;;;4.53;;
12112;SDS011;6120;52.250;8.478;2023-04-01T00:49:13;10.13;;;5.10;;
12112;SDS011;6120;52.250;8.478;2023-04-01T00:51:41;9.43;;;3.60;;
12112;SDS011;6120;52.250;8.478;2023-04-01T00:54:08;6.00;;;3.22;;
12112;SDS011;6120;52.250;8.478;2023-04-01T00:56:40;6.50;;;3.17;;
12112;SDS011;6120;52.250;8.478;2023-04-01T00:59:13;6.07;;;3.50;;
12112;SDS011;6120;52.250;8.478;2023-04-01T01:01:41;4.82;;;2.90;;
12112;SDS011;6120;52.250;8.478;2023-04-01T01:04:20;4.75;;;3.17;;
12112;SDS011;6120;52.250;8.478;2023-04-01T01:12:16;4.40;;;2.35;;
12112;SDS011;6120;52.250;8.478;2023-04-01T01:14:51;6.53;;;2.60;;
12112;SDS011;6120;52.250;8.478;2023-04-01T01:22:43;5.53;;;2.50;;
12112;SDS011;6120;52.250;8.478;2023-04-01T01:34:22;4.82;;;2.30;;
12112;SDS011;6120;52.250;8.478;2023-04-01T01:37:00;5.07;;;2.47;;
12112;SDS011;6120;52.250;8.478;2023-04-01T01:39:30;5.63;;;2.45;;
12112;SDS011;6120;52.250;8.478;2023-04-01T01:41:58;5.78;;;2.45;;
12112;SDS011;6120;52.250;8.478;2023-04-01T01:44:28;5.88;;;2.80;;
12112;SDS011;6120;52.250;8.478;2023-04-01T01:46:55;6.13;;;2.58;;
12112;SDS011;6120;52.250;8.478;2023-04-01T01:49:22;5.68;;;2.13;;
12112;SDS011;6120;52.250;8.478;2023-04-01T01:51:50;6.30;;;2.00;;
12112;SDS011;6120;52.250;8.478;2023-04-01T01:54:17;4.28;;;2.00;;
12112;SDS011;6120;52.250;8.478;2023-04-01T01:56:45;4.72;;;2.55;;
12112;SDS011;6120;52.250;8.478;2023-04-01T01:59:14;4.38;;;1.77;;
12112;SDS011;6120;52.250;8.478;2023-04-01T02:01:42;3.20;;;1.60;;
12112;SDS011;6120;52.250;8.478;2023-04-01T02:04:12;3.90;;;2.13;;
12112;SDS011;6120;52.250;8.478;2023-04-01T02:06:41;4.75;;;1.70;;
12112;SDS011;6120;52.250;8.478;2023-04-01T02:09:11;4.95;;;1.50;;
12112;SDS011;6120;52.250;8.478;2023-04-01T02:11:40;4.45;;;1.77;;
12112;SDS011;6120;52.250;8.478;2023-04-01T02:14:17;4.18;;;1.90;;
12112;SDS011;6120;52.250;8.478;2023-04-01T02:16:57;5.07;;;1.60;;
12112;SDS011;6120;52.250;8.478;2023-04-01T02:19:32;7.53;;;2.08;;
12112;SDS011;6120;52.250;8.478;2023-04-01T02:22:03;3.83;;;1.63;;
12112;SDS011;6120;52.250;8.478;2023-04-01T02:24:33;2.42;;;1.40;;
12112;SDS011;6120;52.250;8.478;2023-04-01T02:27:01;3.42;;;1.83;;
12112;SDS011;6120;52.250;8.478;2023-04-01T02:29:29;4.90;;;1.92;;
12112;SDS011;6120;52.250;8.478;2023-04-01T02:31:56;2.83;;;1.85;;
12112;SDS011;6120;52.250;8.478;2023-04-01T02:34:23;2.83;;;1.67;;
12112;SDS011;6120;52.250;8.478;2023-04-01T02:36:50;3.95;;;2.03;;
12112;SDS011;6120;52.250;8.478;2023-04-01T02:39:17;5.38;;;1.90;;
12112;SDS011;6120;52.250;8.478;2023-04-01T02:41:45;2.75;;;1.65;;
12112;SDS011;6120;52.250;8.478;2023-04-01T02:44:13;2.58;;;1.60;;
12112;SDS011;6120;52.250;8.478;2023-04-01T02:49:07;5.13;;;1.90;;
12112;SDS011;6120;52.250;8.478;2023-04-01T02:51:34;3.40;;;1.70;;
12112;SDS011;6120;52.250;8.478;2023-04-01T02:54:01;4.80;;;1.52;;
12112;SDS011;6120;52.250;8.478;2023-04-01T02:56:27;4.88;;;1.50;;
12112;SDS011;6120;52.250;8.478;2023-04-01T02:58:54;3.00;;;1.33;;
12112;SDS011;6120;52.250;8.478;2023-04-01T03:01:21;4.60;;;1.73;;
12112;SDS011;6120;52.250;8.478;2023-04-01T03:03:48;4.35;;;1.48;;
12112;SDS011;6120;52.250;8.478;2023-04-01T03:06:15;2.85;;;1.40;;
12112;SDS011;6120;52.250;8.478;2023-04-01T03:08:42;2.30;;;1.50;;
12112;SDS011;6120;52.250;8.478;2023-04-01T03:11:09;4.57;;;1.52;;
12112;SDS011;6120;52.250;8.478;2023-04-01T03:13:36;2.20;;;1.40;;
12112;SDS011;6120;52.250;8.478;2023-04-01T03:16:03;3.85;;;1.77;;
12112;SDS011;6120;52.250;8.478;2023-04-01T03:18:30;4.00;;;1.92;;
12112;SDS011;6120;52.250;8.478;2023-04-01T03:20:56;3.38;;;1.80;;
12112;SDS011;6120;52.250;8.478;2023-04-01T03:23:23;2.78;;;1.50;;
12112;SDS011;6120;52.250;8.478;2023-04-01T03:25:50;2.92;;;1.73;;
12112;SDS011;6120;52.250;8.478;2023-04-01T03:28:17;3.42;;;1.67;;
12112;SDS011;6120;52.250;8.478;2023-04-01T03:30:43;2.15;;;1.38;;
12112;SDS011;6120;52.250;8.478;2023-04-01T03:33:10;5.38;;;1.63;;
12112;SDS011;6120;52.250;8.478;2023-04-01T03:35:37;2.97;;;1.55;;
12112;SDS011;6120;52.250;8.478;2023-04-01T03:38:03;4.25;;;1.23;;
12112;SDS011;6120;52.250;8.478;2023-04-01T03:40:30;5.03;;;1.52;;
12112;SDS011;6120;52.250;8.478;2023-04-01T03:42:57;5.50;;;1.50;;
12112;SDS011;6120;52.250;8.478;2023-04-01T03:45:23;4.30;;;1.65;;
12112;SDS011;6120;52.250;8.478;2023-04-01T03:47:50;4.25;;;1.67;;
12112;SDS011;6120;52.250;8.478;2023-04-01T03:50:17;2.03;;;1.40;;
12112;SDS011;6120;52.250;8.478;2023-04-01T03:52:44;3.85;;;1.50;;
12112;SDS011;6120;52.250;8.478;2023-04-01T03:55:10;4.53;;;1.58;;
12112;SDS011;6120;52.250;8.478;2023-04-01T03:57:37;4.63;;;1.90;;
12112;SDS011;6120;52.250;8.478;2023-04-01T04:00:04;3.63;;;1.60;;
12112;SDS011;6120;52.250;8.478;2023-04-01T04:02:31;4.50;;;1.60;;
12112;SDS011;6120;52.250;8.478;2023-04-01T04:04:58;3.55;;;1.60;;
12112;SDS011;6120;52.250;8.478;2023-04-01T04:07:24;3.58;;;1.98;;
12112;SDS011;6120;52.250;8.478;2023-04-01T04:09:51;4.22;;;1.60;;
12112;SDS011;6120;52.250;8.478;2023-04-01T04:12:18;8.10;;;1.80;;
12112;SDS011;6120;52.250;8.478;2023-04-01T04:14:44;2.40;;;1.60;;
12112;SDS011;6120;52.250;8.478;2023-04-01T04:17:11;2.90;;;1.58;;
12112;SDS011;6120;52.250;8.478;2023-04-01T04:19:42;3.53;;;1.50;;
12112;SDS011;6120;52.250;8.478;2023-04-01T04:22:09;2.88;;;1.20;;
12112;SDS011;6120;52.250;8.478;2023-04-01T04:24:35;2.97;;;1.63;;
12112;SDS011;6120;52.250;8.478;2023-04-01T04:27:02;2.60;;;1.60;;
12112;SDS011;6120;52.250;8.478;2023-04-01T04:29:29;3.55;;;1.40;;
12112;SDS011;6120;52.250;8.478;2023-04-01T04:31:56;4.10;;;1.40;;
12112;SDS011;6120;52.250;8.478;2023-04-01T04:34:23;3.88;;;1.70;;
12112;SDS011;6120;52.250;8.478;2023-04-01T04:36:49;2.33;;;1.30;;
12112;SDS011;6120;52.250;8.478;2023-04-01T04:39:16;3.53;;;1.45;;
12112;SDS011;6120;52.250;8.478;2023-04-01T04:41:43;4.90;;;1.27;;
12112;SDS011;6120;52.250;8.478;2023-04-01T04:44:10;3.83;;;1.55;;
12112;SDS011;6120;52.250;8.478;2023-04-01T04:46:36;2.35;;;1.33;;
12112;SDS011;6120;52.250;8.478;2023-04-01T04:49:05;2.65;;;1.30;;
12112;SDS011;6120;52.250;8.478;2023-04-01T04:51:32;2.65;;;1.40;;
12112;SDS011;6120;52.250;8.478;2023-04-01T04:54:02;3.30;;;1.05;;
12112;SDS011;6120;52.250;8.478;2023-04-01T04:56:29;2.90;;;1.33;;
12112;SDS011;6120;52.250;8.478;2023-04-01T04:58:57;1.50;;;1.00;;
12112;SDS011;6120;52.250;8.478;2023-04-01T05:01:24;1.60;;;1.00;;
12112;SDS011;6120;52.250;8.478;2023-04-01T05:03:51;2.15;;;0.95;;
12112;SDS011;6120;52.250;8.478;2023-04-01T05:06:18;2.63;;;1.30;;
12112;SDS011;6120;52.250;8.478;2023-04-01T05:08:48;3.08;;;1.33;;
12112;SDS011;6120;52.250;8.478;2023-04-01T05:11:16;1.98;;;0.90;;
12112;SDS011;6120;52.250;8.478;2023-04-01T05:13:44;1.17;;;0.88;;
12112;SDS011;6120;52.250;8.478;2023-04-01T05:16:15;2.72;;;1.23;;
12112;SDS011;6120;52.250;8.478;2023-04-01T05:18:43;1.98;;;1.02;;
12112;SDS011;6120;52.250;8.478;2023-04-01T05:21:10;5.63;;;1.25;;
12112;SDS011;6120;52.250;8.478;2023-04-01T05:23:38;1.90;;;1.00;;
12112;SDS011;6120;52.250;8.478;2023-04-01T05:26:06;0.82;;;0.77;;
12112;SDS011;6120;52.250;8.478;2023-04-01T05:28:33;3.63;;;1.75;;
12112;SDS011;6120;52.250;8.478;2023-04-01T05:31:00;2.42;;;1.35;;
12112;SDS011;6120;52.250;8.478;2023-04-01T05:33:28;4.80;;;1.10;;
12112;SDS011;6120;52.250;8.478;2023-04-01T05:35:55;2.55;;;1.38;;
12112;SDS011;6120;52.250;8.478;2023-04-01T05:38:22;2.00;;;1.20;;
12112;SDS011;6120;52.250;8.478;2023-04-01T05:40:49;3.45;;;1.35;;
12112;SDS011;6120;52.250;8.478;2023-04-01T05:43:16;2.83;;;1.40;;
12112;SDS011;6120;52.250;8.478;2023-04-01T05:45:42;2.72;;;1.00;;
12112;SDS011;6120;52.250;8.478;2023-04-01T05:48:09;2.85;;;1.33;;
12112;SDS011;6120;52.250;8.478;2023-04-01T05:50:35;1.70;;;1.10;;
12112;SDS011;6120;52.250;8.478;2023-04-01T05:53:02;2.25;;;1.17;;
12112;SDS011;6120;52.250;8.478;2023-04-01T05:55:28;1.80;;;1.30;;
12112;SDS011;6120;52.250;8.478;2023-04-01T05:57:55;2.15;;;1.33;;
12112;SDS011;6120;52.250;8.478;2023-04-01T06:00:22;3.53;;;1.65;;
12112;SDS011;6120;52.250;8.478;2023-04-01T06:02:49;1.85;;;1.30;;
12112;SDS011;6120;52.250;8.478;2023-04-01T06:05:20;3.47;;;1.60;;
12112;SDS011;6120;52.250;8.478;2023-04-01T06:07:53;1.80;;;1.23;;
12112;SDS011;6120;52.250;8.478;2023-04-01T06:10:25;2.05;;;1.00;;
12112;SDS011;6120;52.250;8.478;2023-04-01T06:13:28;2.67;;;1.20;;
12112;SDS011;6120;52.250;8.478;2023-04-01T06:16:21;2.78;;;1.10;;
12112;SDS011;6120;52.250;8.478;2023-04-01T06:18:53;3.13;;;1.10;;
12112;SDS011;6120;52.250;8.478;2023-04-01T06:30:07;2.72;;;1.25;;
12112;SDS011;6120;52.250;8.478;2023-04-01T06:50:05;2.33;;;1.38;;
12112;SDS011;6120;52.250;8.478;2023-04-01T06:52:58;2.00;;;1.40;;
12112;SDS011;6120;52.250;8.478;2023-04-01T06:58:11;2.17;;;1.50;;
12112;SDS011;6120;52.250;8.478;2023-04-01T07:00:45;3.15;;;1.40;;
12112;SDS011;6120;52.250;8.478;2023-04-01T07:05:47;2.08;;;1.40;;
12112;SDS011;6120;52.250;8.478;2023-04-01T07:08:18;1.77;;;1.20;;
12112;SDS011;6120;52.250;8.478;2023-04-01T07:13:22;1.60;;;1.00;;
12112;SDS011;6120;52.250;8.478;2023-04-01T07:15:54;4.30;;;1.27;;
12112;SDS011;6120;52.250;8.478;2023-04-01T07:18:32;2.17;;;1.40;;
12112;SDS011;6120;52.250;8.478;2023-04-01T07:21:04;2.05;;;1.33;;
12112;SDS011;6120;52.250;8.478;2023-04-01T07:23:32;3.13;;;1.50;;
12112;SDS011;6120;52.250;8.478;2023-04-01T07:26:36;1.88;;;1.30;;
12112;SDS011;6120;52.250;8.478;2023-04-01T07:28:56;1.65;;;1.30;;
12112;SDS011;6120;52.250;8.478;2023-04-01T07:33:59;2.80;;;1.38;;
12112;SDS011;6120;52.250;8.478;2023-04-01T07:37:23;2.67;;;1.50;;
12112;SDS011;6120;52.250;8.478;2023-04-01T07:45:41;2.10;;;1.45;;
12112;SDS011;6120;52.250;8.478;2023-04-01T07:48:19;3.30;;;1.33;;
12112;SDS011;6120;52.250;8.478;2023-04-01T07:53:41;5.07;;;1.92;;
12112;SDS011;6120;52.250;8.478;2023-04-01T07:56:16;2.45;;;1.58;;
12112;SDS011;6120;52.250;8.478;2023-04-01T08:07:17;2.85;;;1.40;;
12112;SDS011;6120;52.250;8.478;2023-04-01T08:09:49;4.20;;;1.67;;
12112;SDS011;6120;52.250;8.478;2023-04-01T08:28:51;1.85;;;1.20;;
12112;SDS011;6120;52.250;8.478;2023-04-01T08:31:25;1.45;;;1.30;;
12112;SDS011;6120;52.250;8.478;2023-04-01T08:33:56;2.03;;;1.27;;
12112;SDS011;6120;52.250;8.478;2023-04-01T08:36:24;2.85;;;1.50;;
12112;SDS011;6120;52.250;8.478;2023-04-01T08:39:40;3.63;;;1.30;;
12112;SDS011;6120;52.250;8.478;2023-04-01T08:58:44;1.58;;;1.15;;
12112;SDS011;6120;52.250;8.478;2023-04-01T09:18:50;2.72;;;1.33;;
12112;SDS011;6120;52.250;8.478;2023-04-01T09:27:41;2.42;;;1.33;;
12112;SDS011;6120;52.250;8.478;2023-04-01T09:36:33;1.90;;;1.30;;
12112;SDS011;6120;52.250;8.478;2023-04-01T09:52:47;3.13;;;1.70;;
12112;SDS011;6120;52.250;8.478;2023-04-01T09:55:23;4.18;;;1.60;;
12112;SDS011;6120;52.250;8.478;2023-04-01T10:00:39;2.13;;;1.58;;
12112;SDS011;6120;52.250;8.478;2023-04-01T10:20:46;3.92;;;2.00;;
12112;SDS011;6120;52.250;8.478;2023-04-01T10:23:27;4.15;;;2.10;;
12112;SDS011;6120;52.250;8.478;2023-04-01T10:51:38;2.55;;;1.92;;
12112;SDS011;6120;52.250;8.478;2023-04-01T10:54:22;2.47;;;1.80;;
12112;SDS011;6120;52.250;8.478;2023-04-01T11:03:21;2.83;;;1.80;;
12112;SDS011;6120;52.250;8.478;2023-04-01T11:33:35;4.13;;;2.10;;
12112;SDS011;6120;52.250;8.478;2023-04-01T11:36:10;4.13;;;2.60;;
12112;SDS011;6120;52.250;8.478;2023-04-01T11:44:18;3.35;;;1.80;;
12112;SDS011;6120;52.250;8.478;2023-04-01T11:52:21;2.10;;;1.08;;
12112;SDS011;6120;52.250;8.478;2023-04-01T11:55:18;2.50;;;1.17;;
12112;SDS011;6120;52.250;8.478;2023-04-01T12:06:13;2.10;;;1.48;;
12112;SDS011;6120;52.250;8.478;2023-04-01T12:11:41;1.92;;;1.30;;
12112;SDS011;6120;52.250;8.478;2023-04-01T12:14:16;1.83;;;1.05;;
12112;SDS011;6120;52.250;8.478;2023-04-01T12:22:28;1.90;;;1.13;;
12112;SDS011;6120;52.250;8.478;2023-04-01T12:25:04;1.42;;;1.00;;
12112;SDS011;6120;52.250;8.478;2023-04-01T12:27:53;2.42;;;1.23;;
12112;SDS011;6120;52.250;8.478;2023-04-01T12:33:24;4.38;;;1.58;;
12112;SDS011;6120;52.250;8.478;2023-04-01T12:56:02;2.80;;;1.42;;
12112;SDS011;6120;52.250;8.478;2023-04-01T12:58:40;2.50;;;1.45;;
12112;SDS011;6120;52.250;8.478;2023-04-01T13:01:39;2.03;;;1.40;;
12112;SDS011;6120;52.250;8.478;2023-04-01T13:26:37;1.90;;;1.33;;
12112;SDS011;6120;52.250;8.478;2023-04-01T13:29:18;4.85;;;1.50;;
12112;SDS011;6120;52.250;8.478;2023-04-01T13:34:40;3.38;;;1.73;;
12112;SDS011;6120;52.250;8.478;2023-04-01T13:42:40;3.08;;;1.20;;
12112;SDS011;6120;52.250;8.478;2023-04-01T13:45:14;2.22;;;1.10;;
12112;SDS011;6120;52.250;8.478;2023-04-01T13:53:21;2.15;;;1.27;;
12112;SDS011;6120;52.250;8.478;2023-04-01T14:06:40;1.80;;;1.10;;
12112;SDS011;6120;52.250;8.478;2023-04-01T14:25:55;2.22;;;0.82;;
12112;SDS011;6120;52.250;8.478;2023-04-01T14:29:21;1.00;;;0.80;;
12112;SDS011;6120;52.250;8.478;2023-04-01T14:49:37;1.23;;;0.80;;
12112;SDS011;6120;52.250;8.478;2023-04-01T14:52:16;0.98;;;0.60;;
12112;SDS011;6120;52.250;8.478;2023-04-01T14:54:50;0.73;;;0.57;;
12112;SDS011;6120;52.250;8.478;2023-04-01T14:59:51;0.80;;;0.60;;
12112;SDS011;6120;52.250;8.478;2023-04-01T15:02:45;1.45;;;0.60;;
12112;SDS011;6120;52.250;8.478;2023-04-01T15:13:13;0.98;;;0.70;;
12112;SDS011;6120;52.250;8.478;2023-04-01T15:26:56;2.05;;;1.20;;
12112;SDS011;6120;52.250;8.478;2023-04-01T15:29:38;2.22;;;0.93;;
12112;SDS011;6120;52.250;8.478;2023-04-01T15:32:21;1.15;;;0.90;;
12112;SDS011;6120;52.250;8.478;2023-04-01T15:35:21;1.08;;;0.95;;
12112;SDS011;6120;52.250;8.478;2023-04-01T15:40:53;1.88;;;0.60;;
12112;SDS011;6120;52.250;8.478;2023-04-01T16:03:13;1.42;;;1.00;;
12112;SDS011;6120;52.250;8.478;2023-04-01T16:05:53;1.30;;;1.02;;
12112;SDS011;6120;52.250;8.478;2023-04-01T16:22:33;1.05;;;0.80;;
12112;SDS011;6120;52.250;8.478;2023-04-01T16:25:14;1.35;;;1.00;;
12112;SDS011;6120;52.250;8.478;2023-04-01T16:27:50;0.70;;;0.70;;
12112;SDS011;6120;52.250;8.478;2023-04-01T16:30:38;1.50;;;0.90;;
12112;SDS011;6120;52.250;8.478;2023-04-01T16:41:31;1.75;;;1.08;;
12112;SDS011;6120;52.250;8.478;2023-04-01T16:44:10;1.45;;;1.00;;
12112;SDS011;6120;52.250;8.478;2023-04-01T16:46:40;1.60;;;1.20;;
12112;SDS011;6120;52.250;8.478;2023-04-01T16:51:44;1.45;;;1.10;;
12112;SDS011;6120;52.250;8.478;2023-04-01T17:05:21;2.28;;;1.10;;
12112;SDS011;6120;52.250;8.478;2023-04-01T17:11:07;1.85;;;0.80;;
12112;SDS011;6120;52.250;8.478;2023-04-01T17:38:10;1.35;;;0.95;;
12112;SDS011;6120;52.250;8.478;2023-04-01T17:51:40;1.30;;;0.82;;
12112;SDS011;6120;52.250;8.478;2023-04-01T17:59:47;2.63;;;0.85;;
12112;SDS011;6120;52.250;8.478;2023-04-01T18:02:24;2.20;;;1.00;;
12112;SDS011;6120;52.250;8.478;2023-04-01T18:24:42;1.02;;;0.90;;
12112;SDS011;6120;52.250;8.478;2023-04-01T18:27:16;1.13;;;0.75;;
12112;SDS011;6120;52.250;8.478;2023-04-01T18:32:24;1.83;;;1.00;;
12112;SDS011;6120;52.250;8.478;2023-04-01T18:35:17;1.88;;;1.20;;
12112;SDS011;6120;52.250;8.478;2023-04-01T18:40:23;2.30;;;1.30;;
12112;SDS011;6120;52.250;8.478;2023-04-01T18:43:10;1.80;;;1.00;;
12112;SDS011;6120;52.250;8.478;2023-04-01T18:45:51;1.40;;;1.00;;
12112;SDS011;6120;52.250;8.478;2023-04-01T18:51:19;1.90;;;1.30;;
12112;SDS011;6120;52.250;8.478;2023-04-01T18:53:49;2.03;;;1.20;;
12112;SDS011;6120;52.250;8.478;2023-04-01T19:04:26;2.25;;;1.27;;
12112;SDS011;6120;52.250;8.478;2023-04-01T19:06:55;2.00;;;1.33;;
12112;SDS011;6120;52.250;8.478;2023-04-01T19:09:28;1.58;;;1.15;;
12112;SDS011;6120;52.250;8.478;2023-04-01T19:14:52;2.22;;;1.30;;
12112;SDS011;6120;52.250;8.478;2023-04-01T19:22:53;4.03;;;1.55;;
12112;SDS011;6120;52.250;8.478;2023-04-01T19:25:43;1.65;;;1.15;;
12112;SDS011;6120;52.250;8.478;2023-04-01T19:36:50;2.75;;;1.67;;
12112;SDS011;6120;52.250;8.478;2023-04-01T19:42:30;2.20;;;1.40;;
12112;SDS011;6120;52.250;8.478;2023-04-01T19:52:53;3.13;;;1.85;;
12112;SDS011;6120;52.250;8.478;2023-04-01T19:58:26;2.50;;;1.80;;
12112;SDS011;6120;52.250;8.478;2023-04-01T20:00:57;3.53;;;1.63;;
12112;SDS011;6120;52.250;8.478;2023-04-01T20:12:03;3.33;;;1.77;;
12112;SDS011;6120;52.250;8.478;2023-04-01T20:14:45;3.30;;;1.90;;
12112;SDS011;6120;52.250;8.478;2023-04-01T20:17:20;3.53;;;1.77;;
12112;SDS011;6120;52.250;8.478;2023-04-01T20:28:01;4.38;;;2.50;;
12112;SDS011;6120;52.250;8.478;2023-04-01T20:38:51;2.08;;;1.48;;
12112;SDS011;6120;52.250;8.478;2023-04-01T20:57:47;2.70;;;1.75;;
12112;SDS011;6120;52.250;8.478;2023-04-01T21:11:18;2.70;;;1.67;;
12112;SDS011;6120;52.250;8.478;2023-04-01T21:25:21;2.13;;;1.45;;
12112;SDS011;6120;52.250;8.478;2023-04-01T21:28:58;3.20;;;1.60;;
12112;SDS011;6120;52.250;8.478;2023-04-01T22:06:56;6.28;;;3.10;;
12112;SDS011;6120;52.250;8.478;2023-04-01T22:12:09;6.10;;;3.17;;
12112;SDS011;6120;52.250;8.478;2023-04-01T22:14:47;7.15;;;3.03;;
12112;SDS011;6120;52.250;8.478;2023-04-01T22:17:21;5.45;;;2.50;;
12112;SDS011;6120;52.250;8.478;2023-04-01T22:20:16;5.82;;;2.70;;
12112;SDS011;6120;52.250;8.478;2023-04-01T22:23:07;3.90;;;2.40;;
12112;SDS011;6120;52.250;8.478;2023-04-01T22:34:20;5.10;;;3.20;;
12112;SDS011;6120;52.250;8.478;2023-04-01T22:42:24;6.50;;;2.85;;
12112;SDS011;6120;52.250;8.478;2023-04-01T22:56:21;6.05;;;2.63;;
12112;SDS011;6120;52.250;8.478;2023-04-01T22:59:00;5.18;;;3.05;;
12112;SDS011;6120;52.250;8.478;2023-04-01T23:01:29;4.25;;;2.83;;
12112;SDS011;6120;52.250;8.478;2023-04-01T23:03:58;5.78;;;3.00;;
12112;SDS011;6120;52.250;8.478;2023-04-01T23:06:26;6.10;;;2.92;;
12112;SDS011;6120;52.250;8.478;2023-04-01T23:09:02;4.95;;;2.75;;
12112;SDS011;6120;52.250;8.478;2023-04-01T23:11:48;6.30;;;4.07;;
12112;SDS011;6120;52.250;8.478;2023-04-01T23:22:49;4.78;;;2.72;;
12112;SDS011;6120;52.250;8.478;2023-04-01T23:25:26;5.35;;;3.20;;
12112;SDS011;6120;52.250;8.478;2023-04-01T23:27:56;4.80;;;2.70;;
12112;SDS011;6120;52.250;8.478;2023-04-01T23:35:55;4.63;;;2.67;;
12112;SDS011;6120;52.250;8.478;2023-04-01T23:38:39;6.63;;;2.92;;
12112;SDS011;6120;52.250;8.478;2023-04-01T23:41:16;4.65;;;2.22;;
12112;SDS011;6120;52.250;8.478;2023-04-01T23:43:48;3.45;;;1.90;;
12112;SDS011;6120;52.250;8.478;2023-04-01T23:46:26;2.90;;;1.73;;
12112;SDS011;6120;52.250;8.478;2023-04-01T23:48:55;4.22;;;2.40;;
12112;SDS011;6120;52.250;8.478;2023-04-01T23:51:22;3.47;;;2.30;;
12112;SDS011;6120;52.250;8.478;2023-04-01T23:56:48;3.55;;;2.00;;
